sensor_id;sensor_type;location;lat;lon;timestamp;P1;durP1;ratioP1;P2;durP2;ratioP2
40022;SDS011;25713;-35.352;149.036;2023-04-25T00:00:47;2.95;;;1.23;;
40022;SDS011;25713;-35.352;149.036;2023-04-25T00:03:17;3.22;;;1.52;;
40022;SDS011;25713;-35.352;149.036;2023-04-25T00:05:49;8.27;;;1.58;;
40022;SDS011;25713;-35.352;149.036;2023-04-25T00:08:19;8.00;;;1.40;;
40022;SDS011;25713;-35.352;149.036;2023-04-25T00:10:48;4.90;;;1.55;;
40022;SDS011;25713;-35.352;149.036;2023-04-25T00:13:17;2.53;;;1.25;;
40022;SDS011;25713;-35.352;149.036;2023-04-25T00:15:47;7.40;;;1.52;;
40022;SDS011;25713;-35.352;149.036;2023-04-25T00:18:16;3.25;;;1.38;;
40022;SDS011;25713;-35.352;149.036;2023-04-25T00:20:46;7.28;;;1.50;;
40022;SDS011;25713;-35.352;149.036;2023-04-25T00:23:18;3.92;;;1.33;;
40022;SDS011;25713;-35.352;149.036;2023-04-25T00:25:48;4.00;;;1.20;;
40022;SDS011;25713;-35.352;149.036;2023-04-25T00:28:18;6.40;;;1.48;;
40022;SDS011;25713;-35.352;149.036;2023-04-25T00:30:47;2.60;;;1.42;;
40022;SDS011;25713;-35.352;149.036;2023-04-25T00:33:17;4.45;;;1.35;;
40022;SDS011;25713;-35.352;149.036;2023-04-25T00:35:46;4.78;;;1.60;;
40022;SDS011;25713;-35.352;149.036;2023-04-25T00:38:19;4.85;;;1.50;;
40022;SDS011;25713;-35.352;149.036;2023-04-25T00:40:48;5.22;;;1.60;;
40022;SDS011;25713;-35.352;149.036;2023-04-25T00:43:18;6.40;;;1.75;;
40022;SDS011;25713;-35.352;149.036;2023-04-25T00:45:47;2.95;;;1.30;;
40022;SDS011;25713;-35.352;149.036;2023-04-25T00:48:18;3.20;;;1.50;;
40022;SDS011;25713;-35.352;149.036;2023-04-25T00:50:52;4.07;;;1.50;;
40022;SDS011;25713;-35.352;149.036;2023-04-25T00:53:22;5.78;;;1.67;;
40022;SDS011;25713;-35.352;149.036;2023-04-25T00:55:52;6.47;;;1.80;;
40022;SDS011;25713;-35.352;149.036;2023-04-25T00:58:22;3.40;;;1.50;;
40022;SDS011;25713;-35.352;149.036;2023-04-25T01:00:52;4.10;;;1.38;;
40022;SDS011;25713;-35.352;149.036;2023-04-25T01:03:22;2.45;;;1.15;;
40022;SDS011;25713;-35.352;149.036;2023-04-25T01:05:54;7.00;;;1.40;;
40022;SDS011;25713;-35.352;149.036;2023-04-25T01:08:24;2.92;;;1.25;;
40022;SDS011;25713;-35.352;149.036;2023-04-25T01:10:53;36.72;;;3.45;;
40022;SDS011;25713;-35.352;149.036;2023-04-25T01:13:23;16.55;;;2.47;;
40022;SDS011;25713;-35.352;149.036;2023-04-25T01:15:53;4.65;;;1.45;;
40022;SDS011;25713;-35.352;149.036;2023-04-25T01:18:22;11.55;;;1.60;;
40022;SDS011;25713;-35.352;149.036;2023-04-25T01:20:55;2.13;;;1.25;;
40022;SDS011;25713;-35.352;149.036;2023-04-25T01:23:29;8.40;;;1.20;;
40022;SDS011;25713;-35.352;149.036;2023-04-25T01:25:59;8.57;;;1.20;;
40022;SDS011;25713;-35.352;149.036;2023-04-25T01:28:29;4.38;;;1.00;;
40022;SDS011;25713;-35.352;149.036;2023-04-25T01:31:00;4.32;;;1.15;;
40022;SDS011;25713;-35.352;149.036;2023-04-25T01:33:30;3.50;;;1.00;;
40022;SDS011;25713;-35.352;149.036;2023-04-25T01:35:59;2.67;;;1.00;;
40022;SDS011;25713;-35.352;149.036;2023-04-25T01:38:32;3.42;;;1.27;;
40022;SDS011;25713;-35.352;149.036;2023-04-25T01:41:02;2.30;;;1.10;;
40022;SDS011;25713;-35.352;149.036;2023-04-25T01:43:32;3.80;;;1.05;;
40022;SDS011;25713;-35.352;149.036;2023-04-25T01:46:02;2.28;;;1.00;;
40022;SDS011;25713;-35.352;149.036;2023-04-25T01:48:31;2.70;;;1.42;;
40022;SDS011;25713;-35.352;149.036;2023-04-25T01:51:01;5.63;;;1.20;;
40022;SDS011;25713;-35.352;149.036;2023-04-25T01:53:34;4.47;;;1.77;;
40022;SDS011;25713;-35.352;149.036;2023-04-25T01:56:05;5.18;;;1.27;;
40022;SDS011;25713;-35.352;149.036;2023-04-25T01:58:36;2.58;;;1.25;;
40022;SDS011;25713;-35.352;149.036;2023-04-25T02:01:14;3.40;;;1.20;;
40022;SDS011;25713;-35.352;149.036;2023-04-25T02:03:50;1.80;;;1.00;;
40022;SDS011;25713;-35.352;149.036;2023-04-25T02:06:34;3.58;;;1.23;;
40022;SDS011;25713;-35.352;149.036;2023-04-25T02:09:05;5.60;;;1.30;;
40022;SDS011;25713;-35.352;149.036;2023-04-25T02:11:39;2.05;;;1.17;;
40022;SDS011;25713;-35.352;149.036;2023-04-25T02:14:35;3.28;;;1.00;;
40022;SDS011;25713;-35.352;149.036;2023-04-25T02:17:14;3.88;;;1.17;;
40022;SDS011;25713;-35.352;149.036;2023-04-25T02:19:45;3.00;;;1.45;;
40022;SDS011;25713;-35.352;149.036;2023-04-25T02:22:14;5.38;;;1.15;;
40022;SDS011;25713;-35.352;149.036;2023-04-25T02:24:45;5.95;;;1.20;;
40022;SDS011;25713;-35.352;149.036;2023-04-25T02:27:15;2.00;;;1.10;;
40022;SDS011;25713;-35.352;149.036;2023-04-25T02:29:44;5.32;;;1.30;;
40022;SDS011;25713;-35.352;149.036;2023-04-25T02:32:14;2.40;;;1.00;;
40022;SDS011;25713;-35.352;149.036;2023-04-25T02:34:43;3.33;;;1.20;;
40022;SDS011;25713;-35.352;149.036;2023-04-25T02:37:12;3.13;;;1.30;;
40022;SDS011;25713;-35.352;149.036;2023-04-25T02:39:42;5.05;;;1.10;;
40022;SDS011;25713;-35.352;149.036;2023-04-25T02:42:14;4.13;;;1.00;;
40022;SDS011;25713;-35.352;149.036;2023-04-25T02:44:43;3.17;;;1.05;;
40022;SDS011;25713;-35.352;149.036;2023-04-25T02:47:13;1.52;;;1.10;;
40022;SDS011;25713;-35.352;149.036;2023-04-25T02:49:44;3.13;;;1.20;;
40022;SDS011;25713;-35.352;149.036;2023-04-25T02:52:13;5.68;;;1.40;;
40022;SDS011;25713;-35.352;149.036;2023-04-25T02:54:44;3.20;;;1.23;;
40022;SDS011;25713;-35.352;149.036;2023-04-25T02:57:16;3.15;;;0.95;;
40022;SDS011;25713;-35.352;149.036;2023-04-25T02:59:45;2.20;;;1.10;;
40022;SDS011;25713;-35.352;149.036;2023-04-25T03:02:15;11.35;;;1.40;;
40022;SDS011;25713;-35.352;149.036;2023-04-25T03:04:44;8.77;;;1.30;;
40022;SDS011;25713;-35.352;149.036;2023-04-25T03:07:14;2.50;;;1.05;;
40022;SDS011;25713;-35.352;149.036;2023-04-25T03:09:43;3.40;;;1.20;;
40022;SDS011;25713;-35.352;149.036;2023-04-25T03:12:13;1.85;;;0.98;;
40022;SDS011;25713;-35.352;149.036;2023-04-25T03:14:44;3.85;;;1.00;;
40022;SDS011;25713;-35.352;149.036;2023-04-25T03:17:13;2.38;;;1.00;;
40022;SDS011;25713;-35.352;149.036;2023-04-25T03:19:43;1.92;;;1.00;;
40022;SDS011;25713;-35.352;149.036;2023-04-25T03:22:12;2.75;;;1.20;;
40022;SDS011;25713;-35.352;149.036;2023-04-25T03:24:42;2.15;;;1.00;;
40022;SDS011;25713;-35.352;149.036;2023-04-25T03:27:11;3.65;;;1.10;;
40022;SDS011;25713;-35.352;149.036;2023-04-25T03:29:43;1.67;;;1.05;;
40022;SDS011;25713;-35.352;149.036;2023-04-25T03:32:12;3.70;;;1.40;;
40022;SDS011;25713;-35.352;149.036;2023-04-25T03:34:41;1.52;;;1.10;;
40022;SDS011;25713;-35.352;149.036;2023-04-25T03:37:11;2.55;;;1.20;;
40022;SDS011;25713;-35.352;149.036;2023-04-25T03:39:41;1.48;;;1.02;;
40022;SDS011;25713;-35.352;149.036;2023-04-25T03:42:11;2.58;;;1.00;;
40022;SDS011;25713;-35.352;149.036;2023-04-25T03:44:46;2.17;;;1.10;;
40022;SDS011;25713;-35.352;149.036;2023-04-25T03:47:15;1.33;;;1.00;;
40022;SDS011;25713;-35.352;149.036;2023-04-25T03:49:45;1.38;;;1.10;;
40022;SDS011;25713;-35.352;149.036;2023-04-25T03:52:14;2.45;;;1.10;;
40022;SDS011;25713;-35.352;149.036;2023-04-25T03:54:45;2.70;;;1.10;;
40022;SDS011;25713;-35.352;149.036;2023-04-25T03:57:19;1.30;;;1.15;;
40022;SDS011;25713;-35.352;149.036;2023-04-25T03:59:51;2.28;;;1.08;;
40022;SDS011;25713;-35.352;149.036;2023-04-25T04:02:21;3.80;;;0.90;;
40022;SDS011;25713;-35.352;149.036;2023-04-25T04:04:52;1.33;;;0.90;;
40022;SDS011;25713;-35.352;149.036;2023-04-25T04:07:22;2.72;;;0.93;;
40022;SDS011;25713;-35.352;149.036;2023-04-25T04:09:54;2.35;;;1.13;;
40022;SDS011;25713;-35.352;149.036;2023-04-25T04:12:29;1.80;;;1.10;;
40022;SDS011;25713;-35.352;149.036;2023-04-25T04:15:01;1.73;;;1.00;;
40022;SDS011;25713;-35.352;149.036;2023-04-25T04:17:31;3.85;;;1.10;;
40022;SDS011;25713;-35.352;149.036;2023-04-25T04:20:01;2.45;;;1.23;;
40022;SDS011;25713;-35.352;149.036;2023-04-25T04:22:32;2.10;;;1.10;;
40022;SDS011;25713;-35.352;149.036;2023-04-25T04:25:06;2.60;;;1.33;;
40022;SDS011;25713;-35.352;149.036;2023-04-25T04:27:59;4.35;;;1.63;;
40022;SDS011;25713;-35.352;149.036;2023-04-25T04:30:56;2.28;;;1.33;;
40022;SDS011;25713;-35.352;149.036;2023-04-25T04:33:27;2.95;;;1.52;;
40022;SDS011;25713;-35.352;149.036;2023-04-25T04:36:00;4.80;;;1.83;;
40022;SDS011;25713;-35.352;149.036;2023-04-25T04:38:30;3.05;;;2.10;;
40022;SDS011;25713;-35.352;149.036;2023-04-25T04:41:02;2.47;;;2.03;;
40022;SDS011;25713;-35.352;149.036;2023-04-25T04:43:54;3.43;;;1.87;;
40022;SDS011;25713;-35.352;149.036;2023-04-25T04:46:38;2.45;;;2.00;;
40022;SDS011;25713;-35.352;149.036;2023-04-25T04:49:28;3.75;;;1.55;;
40022;SDS011;25713;-35.352;149.036;2023-04-25T04:52:30;5.43;;;2.00;;
40022;SDS011;25713;-35.352;149.036;2023-04-25T04:55:23;1.83;;;1.65;;
40022;SDS011;25713;-35.352;149.036;2023-04-25T04:58:12;4.20;;;1.85;;
40022;SDS011;25713;-35.352;149.036;2023-04-25T05:01:00;3.05;;;1.80;;
40022;SDS011;25713;-35.352;149.036;2023-04-25T05:03:36;3.10;;;1.90;;
40022;SDS011;25713;-35.352;149.036;2023-04-25T05:06:22;1.95;;;1.70;;
40022;SDS011;25713;-35.352;149.036;2023-04-25T05:09:20;1.90;;;1.45;;
40022;SDS011;25713;-35.352;149.036;2023-04-25T05:12:10;3.42;;;1.50;;
40022;SDS011;25713;-35.352;149.036;2023-04-25T05:14:58;3.05;;;1.85;;
40022;SDS011;25713;-35.352;149.036;2023-04-25T05:17:46;2.58;;;2.03;;
40022;SDS011;25713;-35.352;149.036;2023-04-25T05:23:23;3.78;;;2.35;;
40022;SDS011;25713;-35.352;149.036;2023-04-25T05:26:04;2.75;;;2.15;;
40022;SDS011;25713;-35.352;149.036;2023-04-25T05:28:44;2.55;;;2.05;;
40022;SDS011;25713;-35.352;149.036;2023-04-25T05:31:31;3.40;;;2.47;;
40022;SDS011;25713;-35.352;149.036;2023-04-25T05:34:06;1.88;;;1.50;;
40022;SDS011;25713;-35.352;149.036;2023-04-25T05:37:02;2.88;;;2.00;;
40022;SDS011;25713;-35.352;149.036;2023-04-25T05:39:33;4.32;;;1.90;;
40022;SDS011;25713;-35.352;149.036;2023-04-25T05:42:21;2.97;;;1.90;;
40022;SDS011;25713;-35.352;149.036;2023-04-25T05:45:03;5.85;;;1.95;;
40022;SDS011;25713;-35.352;149.036;2023-04-25T05:47:39;3.35;;;1.80;;
40022;SDS011;25713;-35.352;149.036;2023-04-25T05:50:17;2.75;;;1.48;;
40022;SDS011;25713;-35.352;149.036;2023-04-25T05:52:56;2.17;;;1.52;;
40022;SDS011;25713;-35.352;149.036;2023-04-25T05:55:33;3.50;;;1.40;;
40022;SDS011;25713;-35.352;149.036;2023-04-25T05:58:16;3.50;;;1.60;;
40022;SDS011;25713;-35.352;149.036;2023-04-25T06:00:45;2.05;;;1.50;;
40022;SDS011;25713;-35.352;149.036;2023-04-25T06:03:15;4.97;;;1.63;;
40022;SDS011;25713;-35.352;149.036;2023-04-25T06:05:49;1.80;;;1.60;;
40022;SDS011;25713;-35.352;149.036;2023-04-25T06:08:22;4.65;;;1.40;;
40022;SDS011;25713;-35.352;149.036;2023-04-25T06:10:53;4.78;;;1.60;;
40022;SDS011;25713;-35.352;149.036;2023-04-25T06:15:54;1.92;;;1.40;;
40022;SDS011;25713;-35.352;149.036;2023-04-25T06:20:55;3.63;;;1.60;;
40022;SDS011;25713;-35.352;149.036;2023-04-25T06:23:29;1.73;;;1.45;;
40022;SDS011;25713;-35.352;149.036;2023-04-25T06:26:06;3.15;;;1.35;;
40022;SDS011;25713;-35.352;149.036;2023-04-25T06:28:39;2.35;;;1.30;;
40022;SDS011;25713;-35.352;149.036;2023-04-25T06:31:10;3.70;;;1.40;;
40022;SDS011;25713;-35.352;149.036;2023-04-25T06:33:44;2.20;;;1.27;;
40022;SDS011;25713;-35.352;149.036;2023-04-25T06:36:14;2.22;;;1.25;;
40022;SDS011;25713;-35.352;149.036;2023-04-25T06:38:50;2.47;;;1.60;;
40022;SDS011;25713;-35.352;149.036;2023-04-25T06:41:20;3.40;;;1.40;;
40022;SDS011;25713;-35.352;149.036;2023-04-25T06:43:51;1.38;;;1.20;;
40022;SDS011;25713;-35.352;149.036;2023-04-25T06:46:28;3.20;;;1.50;;
40022;SDS011;25713;-35.352;149.036;2023-04-25T06:49:00;2.80;;;1.48;;
40022;SDS011;25713;-35.352;149.036;2023-04-25T06:51:31;2.20;;;1.30;;
40022;SDS011;25713;-35.352;149.036;2023-04-25T06:54:04;2.05;;;1.35;;
40022;SDS011;25713;-35.352;149.036;2023-04-25T06:56:41;2.38;;;1.38;;
40022;SDS011;25713;-35.352;149.036;2023-04-25T06:59:16;1.88;;;1.45;;
40022;SDS011;25713;-35.352;149.036;2023-04-25T07:01:48;2.90;;;1.40;;
40022;SDS011;25713;-35.352;149.036;2023-04-25T07:04:23;2.67;;;1.40;;
40022;SDS011;25713;-35.352;149.036;2023-04-25T07:06:57;4.72;;;1.55;;
40022;SDS011;25713;-35.352;149.036;2023-04-25T07:09:38;4.40;;;1.50;;
40022;SDS011;25713;-35.352;149.036;2023-04-25T07:12:08;2.00;;;1.30;;
40022;SDS011;25713;-35.352;149.036;2023-04-25T07:14:39;2.47;;;1.30;;
40022;SDS011;25713;-35.352;149.036;2023-04-25T07:17:12;2.25;;;1.50;;
40022;SDS011;25713;-35.352;149.036;2023-04-25T07:19:43;1.30;;;1.20;;
40022;SDS011;25713;-35.352;149.036;2023-04-25T07:22:14;1.65;;;1.30;;
40022;SDS011;25713;-35.352;149.036;2023-04-25T07:24:46;2.35;;;1.60;;
40022;SDS011;25713;-35.352;149.036;2023-04-25T07:27:18;1.48;;;1.20;;
40022;SDS011;25713;-35.352;149.036;2023-04-25T07:30:09;3.72;;;1.75;;
40022;SDS011;25713;-35.352;149.036;2023-04-25T07:32:41;2.92;;;1.63;;
40022;SDS011;25713;-35.352;149.036;2023-04-25T07:35:14;2.63;;;1.75;;
40022;SDS011;25713;-35.352;149.036;2023-04-25T07:37:47;1.90;;;1.45;;
40022;SDS011;25713;-35.352;149.036;2023-04-25T07:40:22;2.00;;;1.70;;
40022;SDS011;25713;-35.352;149.036;2023-04-25T07:42:58;2.22;;;1.60;;
40022;SDS011;25713;-35.352;149.036;2023-04-25T07:45:39;3.13;;;1.83;;
40022;SDS011;25713;-35.352;149.036;2023-04-25T07:48:10;1.90;;;1.35;;
40022;SDS011;25713;-35.352;149.036;2023-04-25T07:50:45;3.90;;;1.58;;
40022;SDS011;25713;-35.352;149.036;2023-04-25T07:53:17;2.45;;;1.60;;
40022;SDS011;25713;-35.352;149.036;2023-04-25T07:56:01;2.53;;;1.50;;
40022;SDS011;25713;-35.352;149.036;2023-04-25T07:58:34;2.58;;;1.77;;
40022;SDS011;25713;-35.352;149.036;2023-04-25T08:01:07;2.03;;;1.50;;
40022;SDS011;25713;-35.352;149.036;2023-04-25T08:03:48;4.43;;;1.85;;
40022;SDS011;25713;-35.352;149.036;2023-04-25T08:06:42;3.38;;;1.60;;
40022;SDS011;25713;-35.352;149.036;2023-04-25T08:09:19;2.45;;;1.83;;
40022;SDS011;25713;-35.352;149.036;2023-04-25T08:11:54;2.60;;;1.50;;
40022;SDS011;25713;-35.352;149.036;2023-04-25T08:14:28;1.88;;;1.70;;
40022;SDS011;25713;-35.352;149.036;2023-04-25T08:16:59;2.30;;;1.60;;
40022;SDS011;25713;-35.352;149.036;2023-04-25T08:19:30;2.10;;;1.70;;
40022;SDS011;25713;-35.352;149.036;2023-04-25T08:22:03;2.08;;;1.50;;
40022;SDS011;25713;-35.352;149.036;2023-04-25T08:24:45;3.20;;;2.08;;
40022;SDS011;25713;-35.352;149.036;2023-04-25T08:27:18;2.42;;;1.60;;
40022;SDS011;25713;-35.352;149.036;2023-04-25T08:29:50;2.63;;;1.70;;
40022;SDS011;25713;-35.352;149.036;2023-04-25T08:32:21;2.60;;;2.20;;
40022;SDS011;25713;-35.352;149.036;2023-04-25T08:35:18;3.63;;;2.83;;
40022;SDS011;25713;-35.352;149.036;2023-04-25T08:37:51;2.92;;;2.55;;
40022;SDS011;25713;-35.352;149.036;2023-04-25T08:40:22;4.38;;;3.10;;
40022;SDS011;25713;-35.352;149.036;2023-04-25T08:43:10;5.00;;;3.50;;
40022;SDS011;25713;-35.352;149.036;2023-04-25T08:45:46;5.55;;;3.47;;
40022;SDS011;25713;-35.352;149.036;2023-04-25T08:48:28;5.80;;;3.40;;
40022;SDS011;25713;-35.352;149.036;2023-04-25T08:51:02;5.32;;;3.50;;
40022;SDS011;25713;-35.352;149.036;2023-04-25T08:53:40;5.63;;;3.53;;
40022;SDS011;25713;-35.352;149.036;2023-04-25T08:56:12;4.20;;;3.47;;
40022;SDS011;25713;-35.352;149.036;2023-04-25T08:58:46;3.72;;;3.05;;
40022;SDS011;25713;-35.352;149.036;2023-04-25T09:01:19;3.67;;;2.88;;
40022;SDS011;25713;-35.352;149.036;2023-04-25T09:03:54;4.63;;;3.33;;
40022;SDS011;25713;-35.352;149.036;2023-04-25T09:06:36;4.65;;;2.83;;
40022;SDS011;25713;-35.352;149.036;2023-04-25T09:09:07;4.70;;;3.08;;
40022;SDS011;25713;-35.352;149.036;2023-04-25T09:11:37;5.07;;;3.28;;
40022;SDS011;25713;-35.352;149.036;2023-04-25T09:14:16;5.03;;;2.90;;
40022;SDS011;25713;-35.352;149.036;2023-04-25T09:17:07;5.70;;;3.00;;
40022;SDS011;25713;-35.352;149.036;2023-04-25T09:19:52;3.78;;;2.83;;
40022;SDS011;25713;-35.352;149.036;2023-04-25T09:22:33;6.53;;;3.00;;
40022;SDS011;25713;-35.352;149.036;2023-04-25T09:25:24;4.90;;;2.88;;
40022;SDS011;25713;-35.352;149.036;2023-04-25T09:27:55;4.18;;;2.80;;
40022;SDS011;25713;-35.352;149.036;2023-04-25T09:30:31;4.45;;;2.80;;
40022;SDS011;25713;-35.352;149.036;2023-04-25T09:33:35;5.03;;;2.75;;
40022;SDS011;25713;-35.352;149.036;2023-04-25T09:36:09;3.38;;;2.30;;
40022;SDS011;25713;-35.352;149.036;2023-04-25T09:39:06;4.50;;;2.85;;
40022;SDS011;25713;-35.352;149.036;2023-04-25T09:41:44;3.58;;;2.47;;
40022;SDS011;25713;-35.352;149.036;2023-04-25T09:44:23;3.72;;;2.53;;
40022;SDS011;25713;-35.352;149.036;2023-04-25T09:47:00;2.90;;;2.22;;
40022;SDS011;25713;-35.352;149.036;2023-04-25T09:49:32;5.25;;;2.17;;
40022;SDS011;25713;-35.352;149.036;2023-04-25T09:52:08;3.60;;;2.40;;
40022;SDS011;25713;-35.352;149.036;2023-04-25T09:54:50;4.22;;;2.15;;
40022;SDS011;25713;-35.352;149.036;2023-04-25T09:57:30;3.50;;;2.10;;
40022;SDS011;25713;-35.352;149.036;2023-04-25T10:00:04;2.95;;;2.10;;
40022;SDS011;25713;-35.352;149.036;2023-04-25T10:02:45;4.18;;;2.28;;
40022;SDS011;25713;-35.352;149.036;2023-04-25T10:05:41;2.22;;;1.98;;
40022;SDS011;25713;-35.352;149.036;2023-04-25T10:08:13;3.70;;;1.90;;
40022;SDS011;25713;-35.352;149.036;2023-04-25T10:10:47;3.58;;;2.17;;
40022;SDS011;25713;-35.352;149.036;2023-04-25T10:13:19;3.13;;;1.85;;
40022;SDS011;25713;-35.352;149.036;2023-04-25T10:15:52;2.67;;;1.92;;
40022;SDS011;25713;-35.352;149.036;2023-04-25T10:18:28;3.33;;;2.00;;
40022;SDS011;25713;-35.352;149.036;2023-04-25T10:21:02;3.67;;;1.70;;
40022;SDS011;25713;-35.352;149.036;2023-04-25T10:23:35;3.40;;;2.28;;
40022;SDS011;25713;-35.352;149.036;2023-04-25T10:26:07;5.18;;;2.25;;
40022;SDS011;25713;-35.352;149.036;2023-04-25T10:31:29;2.83;;;1.90;;
40022;SDS011;25713;-35.352;149.036;2023-04-25T10:34:03;3.88;;;2.30;;
40022;SDS011;25713;-35.352;149.036;2023-04-25T10:36:36;3.40;;;2.10;;
40022;SDS011;25713;-35.352;149.036;2023-04-25T10:39:07;3.60;;;2.10;;
40022;SDS011;25713;-35.352;149.036;2023-04-25T10:41:53;2.90;;;1.80;;
40022;SDS011;25713;-35.352;149.036;2023-04-25T10:44:26;3.28;;;1.95;;
40022;SDS011;25713;-35.352;149.036;2023-04-25T10:46:56;2.85;;;1.80;;
40022;SDS011;25713;-35.352;149.036;2023-04-25T10:49:33;3.25;;;1.95;;
40022;SDS011;25713;-35.352;149.036;2023-04-25T10:52:13;3.53;;;1.80;;
40022;SDS011;25713;-35.352;149.036;2023-04-25T10:54:52;4.82;;;1.92;;
40022;SDS011;25713;-35.352;149.036;2023-04-25T10:57:32;2.50;;;1.60;;
40022;SDS011;25713;-35.352;149.036;2023-04-25T11:00:05;3.40;;;1.80;;
40022;SDS011;25713;-35.352;149.036;2023-04-25T11:02:46;2.67;;;1.90;;
40022;SDS011;25713;-35.352;149.036;2023-04-25T11:05:22;2.42;;;1.92;;
40022;SDS011;25713;-35.352;149.036;2023-04-25T11:07:57;3.92;;;1.95;;
40022;SDS011;25713;-35.352;149.036;2023-04-25T11:10:27;3.53;;;2.03;;
40022;SDS011;25713;-35.352;149.036;2023-04-25T11:12:58;2.75;;;1.80;;
40022;SDS011;25713;-35.352;149.036;2023-04-25T11:15:28;2.63;;;1.98;;
40022;SDS011;25713;-35.352;149.036;2023-04-25T11:17:57;3.08;;;1.90;;
40022;SDS011;25713;-35.352;149.036;2023-04-25T11:20:29;2.42;;;1.60;;
40022;SDS011;25713;-35.352;149.036;2023-04-25T11:22:59;2.95;;;1.80;;
40022;SDS011;25713;-35.352;149.036;2023-04-25T11:25:29;3.80;;;1.80;;
40022;SDS011;25713;-35.352;149.036;2023-04-25T11:27:59;2.25;;;1.60;;
40022;SDS011;25713;-35.352;149.036;2023-04-25T11:30:29;2.08;;;1.60;;
40022;SDS011;25713;-35.352;149.036;2023-04-25T11:32:59;2.10;;;1.60;;
40022;SDS011;25713;-35.352;149.036;2023-04-25T11:35:32;4.00;;;2.30;;
40022;SDS011;25713;-35.352;149.036;2023-04-25T11:38:02;3.78;;;2.17;;
40022;SDS011;25713;-35.352;149.036;2023-04-25T11:40:32;5.75;;;3.25;;
40022;SDS011;25713;-35.352;149.036;2023-04-25T11:43:03;6.82;;;3.75;;
40022;SDS011;25713;-35.352;149.036;2023-04-25T11:45:32;8.50;;;4.60;;
40022;SDS011;25713;-35.352;149.036;2023-04-25T11:48:04;7.77;;;4.70;;
40022;SDS011;25713;-35.352;149.036;2023-04-25T11:50:35;7.53;;;4.20;;
40022;SDS011;25713;-35.352;149.036;2023-04-25T11:53:07;7.72;;;4.15;;
40022;SDS011;25713;-35.352;149.036;2023-04-25T11:55:37;7.40;;;4.25;;
40022;SDS011;25713;-35.352;149.036;2023-04-25T11:58:07;6.90;;;4.10;;
40022;SDS011;25713;-35.352;149.036;2023-04-25T12:00:36;6.72;;;4.20;;
40022;SDS011;25713;-35.352;149.036;2023-04-25T12:03:11;5.10;;;3.47;;
40022;SDS011;25713;-35.352;149.036;2023-04-25T12:05:42;6.50;;;3.50;;
40022;SDS011;25713;-35.352;149.036;2023-04-25T12:08:14;5.57;;;3.30;;
40022;SDS011;25713;-35.352;149.036;2023-04-25T12:10:44;4.55;;;2.97;;
40022;SDS011;25713;-35.352;149.036;2023-04-25T12:13:18;4.50;;;3.17;;
40022;SDS011;25713;-35.352;149.036;2023-04-25T12:15:49;4.72;;;2.72;;
40022;SDS011;25713;-35.352;149.036;2023-04-25T12:18:20;4.32;;;2.50;;
40022;SDS011;25713;-35.352;149.036;2023-04-25T12:20:54;3.22;;;2.53;;
40022;SDS011;25713;-35.352;149.036;2023-04-25T12:23:25;3.65;;;2.50;;
40022;SDS011;25713;-35.352;149.036;2023-04-25T12:25:55;4.90;;;2.40;;
40022;SDS011;25713;-35.352;149.036;2023-04-25T12:28:24;4.20;;;2.53;;
40022;SDS011;25713;-35.352;149.036;2023-04-25T12:30:57;3.92;;;2.70;;
40022;SDS011;25713;-35.352;149.036;2023-04-25T12:33:28;4.78;;;2.88;;
40022;SDS011;25713;-35.352;149.036;2023-04-25T12:36:00;3.25;;;2.40;;
40022;SDS011;25713;-35.352;149.036;2023-04-25T12:38:31;3.05;;;2.47;;
40022;SDS011;25713;-35.352;149.036;2023-04-25T12:41:02;3.97;;;2.25;;
40022;SDS011;25713;-35.352;149.036;2023-04-25T12:43:32;6.55;;;2.45;;
40022;SDS011;25713;-35.352;149.036;2023-04-25T12:46:02;4.10;;;2.15;;
40022;SDS011;25713;-35.352;149.036;2023-04-25T12:48:32;2.63;;;2.10;;
40022;SDS011;25713;-35.352;149.036;2023-04-25T12:51:06;3.40;;;2.30;;
40022;SDS011;25713;-35.352;149.036;2023-04-25T12:53:36;5.03;;;2.15;;
40022;SDS011;25713;-35.352;149.036;2023-04-25T12:56:05;3.17;;;2.40;;
40022;SDS011;25713;-35.352;149.036;2023-04-25T12:58:35;3.85;;;2.58;;
40022;SDS011;25713;-35.352;149.036;2023-04-25T13:01:05;2.85;;;2.28;;
40022;SDS011;25713;-35.352;149.036;2023-04-25T13:03:34;4.57;;;2.60;;
40022;SDS011;25713;-35.352;149.036;2023-04-25T13:06:06;3.38;;;2.45;;
40022;SDS011;25713;-35.352;149.036;2023-04-25T13:08:36;2.75;;;2.40;;
40022;SDS011;25713;-35.352;149.036;2023-04-25T13:11:05;3.92;;;2.50;;
40022;SDS011;25713;-35.352;149.036;2023-04-25T13:13:35;4.53;;;2.58;;
40022;SDS011;25713;-35.352;149.036;2023-04-25T13:16:05;3.58;;;2.80;;
40022;SDS011;25713;-35.352;149.036;2023-04-25T13:18:35;6.22;;;2.60;;
40022;SDS011;25713;-35.352;149.036;2023-04-25T13:21:06;4.18;;;2.85;;
40022;SDS011;25713;-35.352;149.036;2023-04-25T13:23:37;4.93;;;2.67;;
40022;SDS011;25713;-35.352;149.036;2023-04-25T13:26:06;2.88;;;2.58;;
40022;SDS011;25713;-35.352;149.036;2023-04-25T13:28:36;4.22;;;2.83;;
40022;SDS011;25713;-35.352;149.036;2023-04-25T13:31:05;3.05;;;2.33;;
40022;SDS011;25713;-35.352;149.036;2023-04-25T13:33:35;4.88;;;2.65;;
40022;SDS011;25713;-35.352;149.036;2023-04-25T13:36:06;4.43;;;2.53;;
40022;SDS011;25713;-35.352;149.036;2023-04-25T13:38:36;3.05;;;2.45;;
40022;SDS011;25713;-35.352;149.036;2023-04-25T13:41:05;4.43;;;2.42;;
40022;SDS011;25713;-35.352;149.036;2023-04-25T13:43:35;4.20;;;2.60;;
40022;SDS011;25713;-35.352;149.036;2023-04-25T13:46:04;6.05;;;2.63;;
40022;SDS011;25713;-35.352;149.036;2023-04-25T13:48:34;2.95;;;2.20;;
40022;SDS011;25713;-35.352;149.036;2023-04-25T13:51:04;4.78;;;2.38;;
40022;SDS011;25713;-35.352;149.036;2023-04-25T13:53:35;3.37;;;2.50;;
40022;SDS011;25713;-35.352;149.036;2023-04-25T13:56:04;2.88;;;2.42;;
40022;SDS011;25713;-35.352;149.036;2023-04-25T13:58:34;3.13;;;2.38;;
40022;SDS011;25713;-35.352;149.036;2023-04-25T14:01:04;4.63;;;2.22;;
40022;SDS011;25713;-35.352;149.036;2023-04-25T14:03:33;5.68;;;2.38;;
40022;SDS011;25713;-35.352;149.036;2023-04-25T14:06:03;3.67;;;2.13;;
40022;SDS011;25713;-35.352;149.036;2023-04-25T14:08:35;3.47;;;2.13;;
40022;SDS011;25713;-35.352;149.036;2023-04-25T14:11:04;2.75;;;2.25;;
40022;SDS011;25713;-35.352;149.036;2023-04-25T14:13:34;4.65;;;2.17;;
40022;SDS011;25713;-35.352;149.036;2023-04-25T14:16:04;2.47;;;2.10;;
40022;SDS011;25713;-35.352;149.036;2023-04-25T14:18:34;2.72;;;1.90;;
40022;SDS011;25713;-35.352;149.036;2023-04-25T14:21:04;2.50;;;1.90;;
40022;SDS011;25713;-35.352;149.036;2023-04-25T14:23:35;2.45;;;1.92;;
40022;SDS011;25713;-35.352;149.036;2023-04-25T14:26:05;3.35;;;1.90;;
40022;SDS011;25713;-35.352;149.036;2023-04-25T14:28:35;2.63;;;1.90;;
40022;SDS011;25713;-35.352;149.036;2023-04-25T14:31:04;4.05;;;2.10;;
40022;SDS011;25713;-35.352;149.036;2023-04-25T14:33:34;4.60;;;2.05;;
40022;SDS011;25713;-35.352;149.036;2023-04-25T14:36:04;1.80;;;1.63;;
40022;SDS011;25713;-35.352;149.036;2023-04-25T14:38:35;3.50;;;1.73;;
40022;SDS011;25713;-35.352;149.036;2023-04-25T14:41:05;2.78;;;1.70;;
40022;SDS011;25713;-35.352;149.036;2023-04-25T14:43:34;3.50;;;1.98;;
40022;SDS011;25713;-35.352;149.036;2023-04-25T14:46:04;2.95;;;1.73;;
40022;SDS011;25713;-35.352;149.036;2023-04-25T14:48:33;2.03;;;1.75;;
40022;SDS011;25713;-35.352;149.036;2023-04-25T15:51:22;2.00;;;1.80;;
40022;SDS011;25713;-35.352;149.036;2023-04-25T15:53:52;2.33;;;1.65;;
40022;SDS011;25713;-35.352;149.036;2023-04-25T15:56:22;3.53;;;1.80;;